sensor_id;sensor_type;location;lat;lon;timestamp;pressure;altitude;pressure_sealevel;temperature;humidity
37792;BME280;29527;55.766;37.570;2023-06-14T00:02:13;100190.16;;;14.38;44.86
37792;BME280;29527;55.766;37.570;2023-06-14T00:04:39;100187.03;;;14.33;45.17
37792;BME280;29527;55.766;37.570;2023-06-14T00:07:07;100174.09;;;14.07;45.75
37792;BME280;29527;55.766;37.570;2023-06-14T00:09:35;100202.47;;;14.21;45.02
37792;BME280;29527;55.766;37.570;2023-06-14T00:12:01;100197.47;;;14.16;45.79
37792;BME280;29527;55.766;37.570;2023-06-14T00:14:28;100198.91;;;14.11;45.29
37792;BME280;29527;55.766;37.570;2023-06-14T00:16:53;100201.44;;;14.12;46.11
37792;BME280;29527;55.766;37.570;2023-06-14T00:19:25;100206.69;;;14.04;46.36
37792;BME280;29527;55.766;37.570;2023-06-14T00:21:50;100204.13;;;14.02;46.63
37792;BME280;29527;55.766;37.570;2023-06-14T00:24:17;100191.47;;;13.93;46.68
37792;BME280;29527;55.766;37.570;2023-06-14T00:26:42;100212.16;;;13.92;46.65
37792;BME280;29527;55.766;37.570;2023-06-14T00:29:08;100209.03;;;13.87;47.13
37792;BME280;29527;55.766;37.570;2023-06-14T00:31:33;100200.63;;;13.81;47.11
37792;BME280;29527;55.766;37.570;2023-06-14T00:33:59;100203.31;;;13.81;47.03
37792;BME280;29527;55.766;37.570;2023-06-14T00:36:25;100205.19;;;13.80;46.98
37792;BME280;29527;55.766;37.570;2023-06-14T00:38:51;100202.88;;;13.75;47.32
37792;BME280;29527;55.766;37.570;2023-06-14T00:41:16;100190.25;;;13.66;47.34
37792;BME280;29527;55.766;37.570;2023-06-14T00:43:42;100195.22;;;13.71;47.69
37792;BME280;29527;55.766;37.570;2023-06-14T00:46:08;100169.75;;;13.44;47.79
37792;BME280;29527;55.766;37.570;2023-06-14T00:48:34;100203.00;;;13.64;47.60
37792;BME280;29527;55.766;37.570;2023-06-14T00:51:00;100200.69;;;13.59;47.78
37792;BME280;29527;55.766;37.570;2023-06-14T00:53:30;100204.50;;;13.57;48.22
37792;BME280;29527;55.766;37.570;2023-06-14T00:55:59;100197.56;;;13.54;47.90
37792;BME280;29527;55.766;37.570;2023-06-14T00:58:25;100202.94;;;13.54;48.26
37792;BME280;29527;55.766;37.570;2023-06-14T01:00:51;100197.69;;;13.53;48.00
37792;BME280;29527;55.766;37.570;2023-06-14T01:03:16;100185.28;;;13.40;48.29
37792;BME280;29527;55.766;37.570;2023-06-14T01:05:53;100201.97;;;13.55;47.69
37792;BME280;29527;55.766;37.570;2023-06-14T01:08:49;100197.47;;;13.66;47.51
37792;BME280;29527;55.766;37.570;2023-06-14T01:11:26;100202.41;;;13.60;48.33
37792;BME280;29527;55.766;37.570;2023-06-14T01:13:54;100197.97;;;13.49;48.61
37792;BME280;29527;55.766;37.570;2023-06-14T01:16:21;100206.03;;;13.49;48.74
37792;BME280;29527;55.766;37.570;2023-06-14T01:18:47;100191.72;;;13.49;48.96
37792;BME280;29527;55.766;37.570;2023-06-14T01:21:25;100199.72;;;13.60;48.65
37792;BME280;29527;55.766;37.570;2023-06-14T01:23:51;100197.84;;;13.51;48.74
37792;BME280;29527;55.766;37.570;2023-06-14T01:26:23;100210.75;;;13.57;48.68
37792;BME280;29527;55.766;37.570;2023-06-14T01:28:49;100205.47;;;13.56;49.06
37792;BME280;29527;55.766;37.570;2023-06-14T01:31:19;100206.34;;;13.56;48.80
37792;BME280;29527;55.766;37.570;2023-06-14T01:33:48;100205.22;;;13.59;48.67
37792;BME280;29527;55.766;37.570;2023-06-14T01:36:15;100202.94;;;13.54;48.61
37792;BME280;29527;55.766;37.570;2023-06-14T01:38:42;100206.66;;;13.63;48.72
37792;BME280;29527;55.766;37.570;2023-06-14T01:41:09;100166.06;;;13.45;48.74
37792;BME280;29527;55.766;37.570;2023-06-14T01:43:35;100209.53;;;13.71;48.76
37792;BME280;29527;55.766;37.570;2023-06-14T01:46:02;100218.03;;;13.76;48.66
37792;BME280;29527;55.766;37.570;2023-06-14T01:48:28;100206.16;;;13.79;48.10
37792;BME280;29527;55.766;37.570;2023-06-14T01:50:54;100217.09;;;13.87;48.27
37792;BME280;29527;55.766;37.570;2023-06-14T01:53:20;100211.88;;;13.96;47.93
37792;BME280;29527;55.766;37.570;2023-06-14T01:55:46;100214.75;;;14.04;47.28
37792;BME280;29527;55.766;37.570;2023-06-14T01:58:14;100176.00;;;13.85;47.95
37792;BME280;29527;55.766;37.570;2023-06-14T02:00:41;100201.44;;;14.12;48.12
37792;BME280;29527;55.766;37.570;2023-06-14T02:03:08;100219.22;;;14.25;47.25
37792;BME280;29527;55.766;37.570;2023-06-14T02:05:34;100210.84;;;14.28;47.43
37792;BME280;29527;55.766;37.570;2023-06-14T02:08:00;100181.59;;;14.13;47.18
37792;BME280;29527;55.766;37.570;2023-06-14T02:10:26;100202.63;;;14.39;47.06
37792;BME280;29527;55.766;37.570;2023-06-14T02:12:52;100203.78;;;14.46;46.95
37792;BME280;29527;55.766;37.570;2023-06-14T02:15:17;100181.50;;;14.44;47.22
37792;BME280;29527;55.766;37.570;2023-06-14T02:17:46;100205.25;;;14.80;46.35
37792;BME280;29527;55.766;37.570;2023-06-14T02:20:15;100198.72;;;15.02;45.66
37792;BME280;29527;55.766;37.570;2023-06-14T02:22:41;100202.63;;;15.28;45.88
37792;BME280;29527;55.766;37.570;2023-06-14T02:25:07;100209.38;;;15.52;45.92
37792;BME280;29527;55.766;37.570;2023-06-14T02:27:33;100202.78;;;15.74;45.09
37792;BME280;29527;55.766;37.570;2023-06-14T02:30:00;100201.28;;;15.99;44.23
37792;BME280;29527;55.766;37.570;2023-06-14T02:32:26;100199.41;;;16.28;43.59
37792;BME280;29527;55.766;37.570;2023-06-14T02:34:53;100199.75;;;16.61;43.18
37792;BME280;29527;55.766;37.570;2023-06-14T02:37:19;100195.06;;;16.99;42.44
37792;BME280;29527;55.766;37.570;2023-06-14T02:39:44;100197.41;;;17.47;41.52
37792;BME280;29527;55.766;37.570;2023-06-14T02:42:10;100207.94;;;17.85;40.49
37792;BME280;29527;55.766;37.570;2023-06-14T02:44:36;100215.88;;;18.13;39.91
37792;BME280;29527;55.766;37.570;2023-06-14T02:47:02;100164.81;;;18.00;39.55
37792;BME280;29527;55.766;37.570;2023-06-14T02:49:28;100208.66;;;18.38;39.16
37792;BME280;29527;55.766;37.570;2023-06-14T02:51:55;100211.72;;;18.43;39.04
37792;BME280;29527;55.766;37.570;2023-06-14T02:54:20;100211.06;;;18.49;38.58
37792;BME280;29527;55.766;37.570;2023-06-14T02:56:46;100221.25;;;18.72;38.45
37792;BME280;29527;55.766;37.570;2023-06-14T02:59:12;100201.28;;;18.90;37.73
37792;BME280;29527;55.766;37.570;2023-06-14T03:01:39;100210.28;;;19.15;37.27
37792;BME280;29527;55.766;37.570;2023-06-14T03:04:09;100192.09;;;19.41;36.95
37792;BME280;29527;55.766;37.570;2023-06-14T03:06:36;100219.47;;;19.87;35.73
37792;BME280;29527;55.766;37.570;2023-06-14T03:09:03;100227.78;;;20.34;35.25
37792;BME280;29527;55.766;37.570;2023-06-14T03:11:32;100215.06;;;20.58;34.16
37792;BME280;29527;55.766;37.570;2023-06-14T03:14:00;100232.50;;;20.95;33.67
37792;BME280;29527;55.766;37.570;2023-06-14T03:16:25;100224.38;;;21.33;33.18
37792;BME280;29527;55.766;37.570;2023-06-14T03:18:54;100216.53;;;21.69;32.39
37792;BME280;29527;55.766;37.570;2023-06-14T03:21:19;100221.13;;;21.98;31.59
37792;BME280;29527;55.766;37.570;2023-06-14T03:23:48;100223.75;;;22.21;31.29
37792;BME280;29527;55.766;37.570;2023-06-14T03:26:14;100221.38;;;22.48;30.84
37792;BME280;29527;55.766;37.570;2023-06-14T03:28:44;100197.00;;;22.47;30.81
37792;BME280;29527;55.766;37.570;2023-06-14T03:31:11;100221.66;;;22.75;30.11
37792;BME280;29527;55.766;37.570;2023-06-14T03:33:36;100219.03;;;22.89;30.16
37792;BME280;29527;55.766;37.570;2023-06-14T03:36:02;100211.09;;;23.16;29.57
37792;BME280;29527;55.766;37.570;2023-06-14T03:38:28;100205.88;;;23.43;29.44
37792;BME280;29527;55.766;37.570;2023-06-14T03:40:53;100205.69;;;23.79;28.57
37792;BME280;29527;55.766;37.570;2023-06-14T03:43:19;100208.69;;;23.98;27.81
37792;BME280;29527;55.766;37.570;2023-06-14T03:45:44;100209.44;;;24.14;28.09
37792;BME280;29527;55.766;37.570;2023-06-14T03:48:10;100202.97;;;24.35;27.53
37792;BME280;29527;55.766;37.570;2023-06-14T03:50:36;100192.13;;;24.62;27.04
37792;BME280;29527;55.766;37.570;2023-06-14T03:53:03;100209.84;;;25.06;26.46
37792;BME280;29527;55.766;37.570;2023-06-14T03:55:29;100202.91;;;25.37;26.17
37792;BME280;29527;55.766;37.570;2023-06-14T03:57:57;100217.41;;;25.85;25.55
37792;BME280;29527;55.766;37.570;2023-06-14T04:00:22;100216.16;;;26.33;24.72
37792;BME280;29527;55.766;37.570;2023-06-14T04:02:48;100218.69;;;26.74;24.28
37792;BME280;29527;55.766;37.570;2023-06-14T04:05:14;100217.78;;;27.12;23.47
37792;BME280;29527;55.766;37.570;2023-06-14T04:07:42;100225.81;;;27.83;22.66
37792;BME280;29527;55.766;37.570;2023-06-14T04:10:13;100224.81;;;28.64;21.64
37792;BME280;29527;55.766;37.570;2023-06-14T04:12:39;100228.50;;;29.43;20.56
37792;BME280;29527;55.766;37.570;2023-06-14T04:15:06;100220.19;;;29.90;20.19
37792;BME280;29527;55.766;37.570;2023-06-14T04:17:32;100224.09;;;30.47;19.77
37792;BME280;29527;55.766;37.570;2023-06-14T04:20:02;100220.63;;;30.98;18.68
37792;BME280;29527;55.766;37.570;2023-06-14T04:22:30;100210.56;;;31.26;18.30
37792;BME280;29527;55.766;37.570;2023-06-14T04:24:57;100222.25;;;31.68;17.93
37792;BME280;29527;55.766;37.570;2023-06-14T04:27:23;100216.53;;;31.91;17.62
37792;BME280;29527;55.766;37.570;2023-06-14T04:29:54;100220.91;;;32.59;17.38
37792;BME280;29527;55.766;37.570;2023-06-14T04:32:25;100211.84;;;33.29;16.59
37792;BME280;29527;55.766;37.570;2023-06-14T04:34:57;100203.88;;;33.91;16.38
37792;BME280;29527;55.766;37.570;2023-06-14T04:37:24;100175.22;;;34.60;15.35
37792;BME280;29527;55.766;37.570;2023-06-14T04:39:54;100212.50;;;35.31;14.74
37792;BME280;29527;55.766;37.570;2023-06-14T04:42:21;100209.53;;;35.99;13.99
37792;BME280;29527;55.766;37.570;2023-06-14T04:44:51;100207.06;;;36.53;13.40
37792;BME280;29527;55.766;37.570;2023-06-14T04:47:17;100215.59;;;37.06;13.46
37792;BME280;29527;55.766;37.570;2023-06-14T04:49:43;100192.00;;;37.23;13.01
37792;BME280;29527;55.766;37.570;2023-06-14T04:52:10;100212.13;;;37.74;12.89
37792;BME280;29527;55.766;37.570;2023-06-14T04:54:36;100217.41;;;38.43;12.60
37792;BME280;29527;55.766;37.570;2023-06-14T04:57:07;100199.81;;;39.28;11.45
37792;BME280;29527;55.766;37.570;2023-06-14T04:59:33;100214.59;;;39.76;10.75
37792;BME280;29527;55.766;37.570;2023-06-14T05:02:01;100208.47;;;40.30;10.16
37792;BME280;29527;55.766;37.570;2023-06-14T05:04:26;100199.13;;;40.80;10.34
37792;BME280;29527;55.766;37.570;2023-06-14T05:06:53;100206.88;;;41.06;9.45
37792;BME280;29527;55.766;37.570;2023-06-14T05:09:22;100193.09;;;41.50;9.61
37792;BME280;29527;55.766;37.570;2023-06-14T05:11:48;100196.25;;;41.98;8.94
37792;BME280;29527;55.766;37.570;2023-06-14T05:14:15;100194.50;;;42.72;8.64
37792;BME280;29527;55.766;37.570;2023-06-14T05:16:41;100196.28;;;42.95;8.69
37792;BME280;29527;55.766;37.570;2023-06-14T05:19:08;100199.84;;;43.22;8.33
37792;BME280;29527;55.766;37.570;2023-06-14T05:21:36;100199.03;;;43.21;8.44
37792;BME280;29527;55.766;37.570;2023-06-14T05:24:02;100199.03;;;43.21;8.00
37792;BME280;29527;55.766;37.570;2023-06-14T05:26:28;100193.00;;;43.79;7.58
37792;BME280;29527;55.766;37.570;2023-06-14T05:28:57;100205.00;;;44.27;7.82
37792;BME280;29527;55.766;37.570;2023-06-14T05:31:24;100207.19;;;44.22;7.59
37792;BME280;29527;55.766;37.570;2023-06-14T05:33:51;100203.75;;;44.16;7.38
37792;BME280;29527;55.766;37.570;2023-06-14T05:36:17;100200.44;;;44.35;7.35
37792;BME280;29527;55.766;37.570;2023-06-14T05:38:43;100199.75;;;44.17;7.28
37792;BME280;29527;55.766;37.570;2023-06-14T05:41:08;100178.97;;;44.22;7.59
37792;BME280;29527;55.766;37.570;2023-06-14T05:43:34;100199.41;;;44.61;7.06
37792;BME280;29527;55.766;37.570;2023-06-14T05:46:00;100191.69;;;44.70;7.33
37792;BME280;29527;55.766;37.570;2023-06-14T05:48:25;100199.00;;;44.84;7.13
37792;BME280;29527;55.766;37.570;2023-06-14T05:50:51;100208.78;;;45.20;6.44
37792;BME280;29527;55.766;37.570;2023-06-14T05:53:16;100205.63;;;44.88;6.61
37792;BME280;29527;55.766;37.570;2023-06-14T05:55:42;100200.03;;;45.00;6.66
37792;BME280;29527;55.766;37.570;2023-06-14T05:58:07;100206.84;;;44.66;6.64
37792;BME280;29527;55.766;37.570;2023-06-14T06:00:33;100215.75;;;44.89;6.69
37792;BME280;29527;55.766;37.570;2023-06-14T06:02:58;100182.59;;;44.22;6.51
37792;BME280;29527;55.766;37.570;2023-06-14T06:05:24;100212.66;;;44.82;7.02
37792;BME280;29527;55.766;37.570;2023-06-14T06:07:50;100201.25;;;45.24;6.91
37792;BME280;29527;55.766;37.570;2023-06-14T06:10:16;100192.00;;;45.86;6.14
37792;BME280;29527;55.766;37.570;2023-06-14T06:12:42;100201.19;;;45.70;5.91
37792;BME280;29527;55.766;37.570;2023-06-14T06:15:08;100205.53;;;45.80;5.91
37792;BME280;29527;55.766;37.570;2023-06-14T06:17:38;100195.81;;;46.06;5.33
37792;BME280;29527;55.766;37.570;2023-06-14T06:20:04;100191.81;;;46.89;5.59
37792;BME280;29527;55.766;37.570;2023-06-14T06:22:31;100169.13;;;47.85;5.29
37792;BME280;29527;55.766;37.570;2023-06-14T06:24:57;100196.72;;;49.26;4.70
37792;BME280;29527;55.766;37.570;2023-06-14T06:27:22;100210.78;;;49.42;4.08
37792;BME280;29527;55.766;37.570;2023-06-14T06:29:48;100186.34;;;48.32;4.03
37792;BME280;29527;55.766;37.570;2023-06-14T06:32:15;100197.47;;;48.21;4.54
37792;BME280;29527;55.766;37.570;2023-06-14T06:34:40;100187.78;;;48.62;4.67
37792;BME280;29527;55.766;37.570;2023-06-14T06:37:06;100178.38;;;49.01;4.46
37792;BME280;29527;55.766;37.570;2023-06-14T06:39:31;100184.25;;;48.68;3.88
37792;BME280;29527;55.766;37.570;2023-06-14T06:41:57;100189.50;;;48.47;4.65
37792;BME280;29527;55.766;37.570;2023-06-14T06:44:23;100180.91;;;48.63;4.22
37792;BME280;29527;55.766;37.570;2023-06-14T06:46:48;100182.16;;;49.08;4.33
37792;BME280;29527;55.766;37.570;2023-06-14T06:49:14;100179.91;;;49.95;3.74
37792;BME280;29527;55.766;37.570;2023-06-14T06:51:41;100177.13;;;50.29;3.41
37792;BME280;29527;55.766;37.570;2023-06-14T06:54:07;100185.22;;;49.69;3.35
37792;BME280;29527;55.766;37.570;2023-06-14T06:56:34;100185.88;;;49.36;3.96
37792;BME280;29527;55.766;37.570;2023-06-14T06:58:59;100186.81;;;48.54;4.26
37792;BME280;29527;55.766;37.570;2023-06-14T07:01:25;100188.56;;;48.23;4.07
37792;BME280;29527;55.766;37.570;2023-06-14T07:03:51;100190.81;;;46.97;4.89
37792;BME280;29527;55.766;37.570;2023-06-14T07:06:17;100170.44;;;45.69;5.51
37792;BME280;29527;55.766;37.570;2023-06-14T07:08:44;100174.28;;;46.42;5.02
37792;BME280;29527;55.766;37.570;2023-06-14T07:11:10;100167.81;;;48.19;4.12
37792;BME280;29527;55.766;37.570;2023-06-14T07:13:35;100160.72;;;49.61;3.71
37792;BME280;29527;55.766;37.570;2023-06-14T07:16:01;100175.19;;;50.75;3.69
37792;BME280;29527;55.766;37.570;2023-06-14T07:18:27;100181.66;;;49.76;3.18
37792;BME280;29527;55.766;37.570;2023-06-14T07:20:53;100173.06;;;48.36;3.72
37792;BME280;29527;55.766;37.570;2023-06-14T07:23:22;100163.44;;;47.34;4.66
37792;BME280;29527;55.766;37.570;2023-06-14T07:25:48;100173.53;;;47.03;4.55
37792;BME280;29527;55.766;37.570;2023-06-14T07:28:14;100175.13;;;48.00;4.03
37792;BME280;29527;55.766;37.570;2023-06-14T07:30:40;100183.00;;;48.85;3.67
37792;BME280;29527;55.766;37.570;2023-06-14T07:33:05;100154.88;;;49.04;3.93
37792;BME280;29527;55.766;37.570;2023-06-14T07:35:31;100170.13;;;49.42;3.66
37792;BME280;29527;55.766;37.570;2023-06-14T07:37:56;100161.66;;;49.69;3.64
37792;BME280;29527;55.766;37.570;2023-06-14T07:40:22;100154.78;;;50.65;3.12
37792;BME280;29527;55.766;37.570;2023-06-14T07:42:47;100167.63;;;51.35;3.28
37792;BME280;29527;55.766;37.570;2023-06-14T07:45:15;100179.97;;;51.50;2.79
37792;BME280;29527;55.766;37.570;2023-06-14T07:47:41;100163.22;;;50.24;3.16
37792;BME280;29527;55.766;37.570;2023-06-14T07:50:07;100168.06;;;49.62;3.77
37792;BME280;29527;55.766;37.570;2023-06-14T07:52:33;100153.22;;;49.76;3.39
37792;BME280;29527;55.766;37.570;2023-06-14T07:54:59;100164.44;;;50.23;3.26
37792;BME280;29527;55.766;37.570;2023-06-14T07:57:25;100157.31;;;50.78;3.38
37792;BME280;29527;55.766;37.570;2023-06-14T07:59:50;100158.34;;;51.00;3.01
37792;BME280;29527;55.766;37.570;2023-06-14T08:02:16;100157.94;;;50.60;3.26
37792;BME280;29527;55.766;37.570;2023-06-14T08:04:42;100160.88;;;50.03;3.06
37792;BME280;29527;55.766;37.570;2023-06-14T08:07:08;100170.09;;;48.49;4.05
37792;BME280;29527;55.766;37.570;2023-06-14T08:09:34;100168.94;;;46.82;4.49
37792;BME280;29527;55.766;37.570;2023-06-14T08:12:04;100156.81;;;46.53;4.75
37792;BME280;29527;55.766;37.570;2023-06-14T08:14:33;100138.91;;;46.08;5.06
37792;BME280;29527;55.766;37.570;2023-06-14T08:16:59;100153.91;;;45.71;5.39
37792;BME280;29527;55.766;37.570;2023-06-14T08:19:24;100139.09;;;45.62;5.42
37792;BME280;29527;55.766;37.570;2023-06-14T08:21:50;100165.94;;;44.51;5.60
37792;BME280;29527;55.766;37.570;2023-06-14T08:24:16;100160.81;;;41.39;7.49
37792;BME280;29527;55.766;37.570;2023-06-14T08:26:41;100145.84;;;38.23;9.38
37792;BME280;29527;55.766;37.570;2023-06-14T08:29:07;100125.09;;;36.09;10.88
37792;BME280;29527;55.766;37.570;2023-06-14T08:31:33;100161.31;;;34.55;11.78
37792;BME280;29527;55.766;37.570;2023-06-14T08:33:59;100159.91;;;33.19;13.22
37792;BME280;29527;55.766;37.570;2023-06-14T08:36:24;100123.50;;;31.51;13.95
37792;BME280;29527;55.766;37.570;2023-06-14T08:38:50;100169.69;;;30.48;15.08
37792;BME280;29527;55.766;37.570;2023-06-14T08:41:20;100163.19;;;29.72;15.93
37792;BME280;29527;55.766;37.570;2023-06-14T08:43:47;100143.22;;;29.05;17.00
37792;BME280;29527;55.766;37.570;2023-06-14T08:46:14;100153.09;;;28.71;17.38
37792;BME280;29527;55.766;37.570;2023-06-14T08:48:46;100159.16;;;28.00;18.57
37792;BME280;29527;55.766;37.570;2023-06-14T08:51:13;100124.81;;;27.53;18.96
37792;BME280;29527;55.766;37.570;2023-06-14T08:53:42;100088.53;;;26.75;19.69
37792;BME280;29527;55.766;37.570;2023-06-14T08:56:09;100132.63;;;26.87;19.53
37792;BME280;29527;55.766;37.570;2023-06-14T08:58:41;100137.50;;;26.85;20.27
37792;BME280;29527;55.766;37.570;2023-06-14T09:01:11;100142.75;;;26.86;19.79
37792;BME280;29527;55.766;37.570;2023-06-14T09:03:42;100148.31;;;26.47;20.24
37792;BME280;29527;55.766;37.570;2023-06-14T09:06:09;100120.34;;;26.32;20.29
37792;BME280;29527;55.766;37.570;2023-06-14T09:08:43;100143.84;;;26.14;20.41
37792;BME280;29527;55.766;37.570;2023-06-14T09:11:14;100162.09;;;25.88;20.91
37792;BME280;29527;55.766;37.570;2023-06-14T09:13:41;100119.00;;;25.50;20.95
37792;BME280;29527;55.766;37.570;2023-06-14T09:16:07;100138.22;;;25.23;21.81
37792;BME280;29527;55.766;37.570;2023-06-14T09:18:45;100124.50;;;25.30;22.02
37792;BME280;29527;55.766;37.570;2023-06-14T09:21:14;100125.94;;;25.59;21.93
37792;BME280;29527;55.766;37.570;2023-06-14T09:23:41;100121.00;;;25.82;21.39
37792;BME280;29527;55.766;37.570;2023-06-14T09:26:09;100122.31;;;26.11;20.92
37792;BME280;29527;55.766;37.570;2023-06-14T09:28:35;100120.81;;;26.15;20.77
37792;BME280;29527;55.766;37.570;2023-06-14T09:31:02;100123.59;;;26.08;20.57
37792;BME280;29527;55.766;37.570;2023-06-14T09:33:27;100114.31;;;26.16;21.19
37792;BME280;29527;55.766;37.570;2023-06-14T09:35:56;100122.88;;;26.27;20.66
37792;BME280;29527;55.766;37.570;2023-06-14T09:38:21;100064.47;;;25.74;21.40
37792;BME280;29527;55.766;37.570;2023-06-14T09:40:47;100119.34;;;26.13;21.28
37792;BME280;29527;55.766;37.570;2023-06-14T09:43:12;100122.78;;;26.08;21.73
37792;BME280;29527;55.766;37.570;2023-06-14T09:45:41;100129.50;;;26.12;20.96
37792;BME280;29527;55.766;37.570;2023-06-14T09:48:11;100116.00;;;26.04;20.96
37792;BME280;29527;55.766;37.570;2023-06-14T09:50:37;100092.94;;;25.79;21.51
37792;BME280;29527;55.766;37.570;2023-06-14T09:53:10;100123.59;;;26.08;21.22
37792;BME280;29527;55.766;37.570;2023-06-14T09:55:37;100108.16;;;26.14;20.95
37792;BME280;29527;55.766;37.570;2023-06-14T09:58:07;100108.78;;;26.23;20.75
37792;BME280;29527;55.766;37.570;2023-06-14T10:00:33;100108.22;;;26.01;20.97
37792;BME280;29527;55.766;37.570;2023-06-14T10:03:12;100105.13;;;25.90;21.25
37792;BME280;29527;55.766;37.570;2023-06-14T10:05:39;100098.88;;;25.70;21.43
37792;BME280;29527;55.766;37.570;2023-06-14T10:08:13;100092.53;;;25.76;20.98
37792;BME280;29527;55.766;37.570;2023-06-14T10:10:39;100097.56;;;25.79;21.14
37792;BME280;29527;55.766;37.570;2023-06-14T10:13:08;100089.84;;;25.69;20.40
37792;BME280;29527;55.766;37.570;2023-06-14T10:15:55;100101.31;;;25.91;20.43
37792;BME280;29527;55.766;37.570;2023-06-14T10:18:45;100088.53;;;25.78;20.64
37792;BME280;29527;55.766;37.570;2023-06-14T10:21:22;100092.97;;;25.73;20.79
37792;BME280;29527;55.766;37.570;2023-06-14T10:23:51;100075.44;;;25.74;21.17
37792;BME280;29527;55.766;37.570;2023-06-14T10:26:19;100092.09;;;25.79;21.12
37792;BME280;29527;55.766;37.570;2023-06-14T10:29:00;100084.00;;;25.91;21.11
37792;BME280;29527;55.766;37.570;2023-06-14T10:31:41;100080.25;;;25.85;21.08
37792;BME280;29527;55.766;37.570;2023-06-14T10:34:07;100077.81;;;25.70;21.71
37792;BME280;29527;55.766;37.570;2023-06-14T10:36:33;100071.66;;;25.68;21.92
37792;BME280;29527;55.766;37.570;2023-06-14T10:39:08;100062.25;;;25.57;22.14
37792;BME280;29527;55.766;37.570;2023-06-14T10:41:37;100066.41;;;25.73;21.56
37792;BME280;29527;55.766;37.570;2023-06-14T10:46:56;100070.88;;;25.61;21.91
37792;BME280;29527;55.766;37.570;2023-06-14T10:52:28;100057.59;;;25.58;20.96
37792;BME280;29527;55.766;37.570;2023-06-14T10:57:27;100036.97;;;25.42;22.16
37792;BME280;29527;55.766;37.570;2023-06-14T10:59:53;100051.69;;;25.54;22.35
37792;BME280;29527;55.766;37.570;2023-06-14T11:04:50;100052.44;;;25.82;22.13
37792;BME280;29527;55.766;37.570;2023-06-14T11:10:40;100054.69;;;25.91;21.84
37792;BME280;29527;55.766;37.570;2023-06-14T11:13:06;100028.94;;;25.54;22.12
37792;BME280;29527;55.766;37.570;2023-06-14T11:15:34;100058.63;;;25.63;21.99
37792;BME280;29527;55.766;37.570;2023-06-14T11:18:01;100036.75;;;25.43;22.59
37792;BME280;29527;55.766;37.570;2023-06-14T11:20:30;100050.88;;;25.54;21.90
37792;BME280;29527;55.766;37.570;2023-06-14T11:22:56;100036.16;;;25.34;21.67
37792;BME280;29527;55.766;37.570;2023-06-14T11:25:22;100034.53;;;25.20;22.02
37792;BME280;29527;55.766;37.570;2023-06-14T11:27:49;100018.53;;;25.17;22.37
37792;BME280;29527;55.766;37.570;2023-06-14T11:30:15;100038.50;;;25.31;22.19
37792;BME280;29527;55.766;37.570;2023-06-14T11:32:41;100035.28;;;25.41;21.93
37792;BME280;29527;55.766;37.570;2023-06-14T11:35:08;100037.84;;;25.35;21.99
37792;BME280;29527;55.766;37.570;2023-06-14T11:37:36;100032.59;;;25.27;22.80
37792;BME280;29527;55.766;37.570;2023-06-14T11:40:04;100042.06;;;25.31;22.85
37792;BME280;29527;55.766;37.570;2023-06-14T11:42:33;100034.25;;;25.42;22.21
37792;BME280;29527;55.766;37.570;2023-06-14T11:45:00;100011.56;;;25.14;22.49
37792;BME280;29527;55.766;37.570;2023-06-14T11:47:39;100022.25;;;25.29;22.65
37792;BME280;29527;55.766;37.570;2023-06-14T11:50:06;99997.88;;;25.14;21.94
37792;BME280;29527;55.766;37.570;2023-06-14T11:52:33;100026.91;;;25.35;22.38
37792;BME280;29527;55.766;37.570;2023-06-14T11:54:59;100030.69;;;25.34;22.54
37792;BME280;29527;55.766;37.570;2023-06-14T11:57:26;99987.31;;;25.18;22.12
37792;BME280;29527;55.766;37.570;2023-06-14T11:59:52;100026.44;;;25.39;21.71
37792;BME280;29527;55.766;37.570;2023-06-14T12:02:21;100005.44;;;25.26;21.58
37792;BME280;29527;55.766;37.570;2023-06-14T12:04:48;100021.78;;;25.39;20.68
37792;BME280;29527;55.766;37.570;2023-06-14T12:07:17;100015.53;;;25.25;21.33
37792;BME280;29527;55.766;37.570;2023-06-14T12:12:26;99997.84;;;25.21;21.48
37792;BME280;29527;55.766;37.570;2023-06-14T12:14:53;100017.63;;;25.36;21.79
37792;BME280;29527;55.766;37.570;2023-06-14T12:17:19;100008.38;;;25.24;21.57
37792;BME280;29527;55.766;37.570;2023-06-14T12:19:46;100010.66;;;25.27;21.24
37792;BME280;29527;55.766;37.570;2023-06-14T12:22:13;100010.94;;;25.19;21.63
37792;BME280;29527;55.766;37.570;2023-06-14T12:24:42;100004.25;;;24.94;22.21
37792;BME280;29527;55.766;37.570;2023-06-14T12:27:07;99992.88;;;24.91;22.29
37792;BME280;29527;55.766;37.570;2023-06-14T12:29:33;99994.56;;;24.92;22.59
37792;BME280;29527;55.766;37.570;2023-06-14T12:31:59;99989.47;;;25.02;22.45
37792;BME280;29527;55.766;37.570;2023-06-14T12:34:25;99994.13;;;24.95;22.20
37792;BME280;29527;55.766;37.570;2023-06-14T12:36:53;99990.34;;;24.89;22.54
37792;BME280;29527;55.766;37.570;2023-06-14T12:39:19;99989.47;;;24.96;22.39
37792;BME280;29527;55.766;37.570;2023-06-14T12:41:45;99988.69;;;24.88;22.75
37792;BME280;29527;55.766;37.570;2023-06-14T12:44:11;99982.34;;;24.74;22.65
37792;BME280;29527;55.766;37.570;2023-06-14T12:46:37;99978.31;;;24.97;22.85
37792;BME280;29527;55.766;37.570;2023-06-14T12:49:07;99978.31;;;25.11;22.90
37792;BME280;29527;55.766;37.570;2023-06-14T12:51:33;99973.91;;;25.03;22.84
37792;BME280;29527;55.766;37.570;2023-06-14T12:54:00;99969.13;;;24.85;23.27
37792;BME280;29527;55.766;37.570;2023-06-14T12:56:25;99971.59;;;24.93;23.01
37792;BME280;29527;55.766;37.570;2023-06-14T12:58:51;99972.03;;;24.97;22.96
37792;BME280;29527;55.766;37.570;2023-06-14T13:01:18;99986.72;;;25.09;22.04